»·PEaware :: XOJ539 KSWF-KIAD

XOJ539 :: KSWF-KIAD

FLIGHT INFORMATION

Flight Status: Arrived
Operator:
XOJET
More flights by this operator :: More flights under this callsign
Pilot: Charles S. (11412)
Aircraft: BOMBARDIER BD-100 CHALLENGER 300
(CL30)
More flights by this aircraft type
Origin: KSWF Stewart Intl
United States
Destination: KIAD Washington Dulles Intl
United States
More flights between these airports :: More routes between these airports
Route: SWF8 WEARD LAAYK Q436 DGRAF PSB MAPEL2
File this flight plan on PilotEdge
Remarks:
Altitude:
(Current/Filed)
20,000ft
Speed:
(Current/Filed)
270kts
Departed: 15-Sep-18 01:05 PM
Arrived: 15-Sep-18 02:14 PM
Distance/Time
Traveled:
216nm/1:09
Distance/Time
To Go:
Arrived

Flight Plot

Page will automatically refresh every two minutes.

Flight plan parsing failed; only flown route is shown


Map Options




Map Legend


Flown Route
Filed Route
Departure Airport
Arrival Airport
Navaid (VOR, NDB)
Fix

Horizontal Profiles

Position Reports

Time Latitude Longitude Heading Altitude Ground
Speed
15-Sep-18 12:57 41.493982 -74.096366 286 440ft 0kts
15-Sep-18 12:58 41.493982 -74.096366 286 440ft 0kts
15-Sep-18 12:59 41.494021 -74.096494 296 440ft 0kts
15-Sep-18 13:00 41.494021 -74.096494 296 440ft 0kts
15-Sep-18 13:01 41.494021 -74.096494 296 440ft 0kts
15-Sep-18 13:02 41.494021 -74.096494 296 440ft 0kts
15-Sep-18 13:03 41.496148 -74.097584 339 453ft 17kts
15-Sep-18 13:04 41.501498 -74.098386 16 466ft 18kts
15-Sep-18 13:05 41.504828 -74.093111 77 459ft 25kts
15-Sep-18 13:06 41.506800 -74.088110 348 456ft 10kts
15-Sep-18 13:07 41.505759 -74.098689 258 466ft 144kts
15-Sep-18 13:08 41.516172 -74.162585 312 3943ft 213kts
15-Sep-18 13:09 41.554504 -74.219603 313 7419ft 221kts
15-Sep-18 13:10 41.596991 -74.282220 314 10985ft 257kts
15-Sep-18 13:11 41.651971 -74.362933 314 13370ft 338kts
15-Sep-18 13:12 41.714217 -74.454447 314 15712ft 347kts
15-Sep-18 13:13 41.737133 -74.573243 258 18099ft 370kts
15-Sep-18 13:14 41.706780 -74.702724 252 20331ft 385kts
15-Sep-18 13:15 41.669107 -74.837370 250 20382ft 384kts
15-Sep-18 13:16 41.630300 -74.969530 249 20383ft 383kts
15-Sep-18 13:17 41.590837 -75.101816 249 20383ft 383kts
15-Sep-18 13:18 41.551442 -75.232806 249 20378ft 382kts
15-Sep-18 13:19 41.511833 -75.363786 249 20375ft 382kts
15-Sep-18 13:20 41.489842 -75.497626 285 20386ft 377kts
15-Sep-18 13:21 41.520848 -75.630291 290 20356ft 376kts
15-Sep-18 13:22 41.556094 -75.760037 291 20356ft 376kts
15-Sep-18 13:23 41.592864 -75.890929 291 20355ft 376kts
15-Sep-18 13:24 41.629733 -76.021555 291 20357ft 376kts
15-Sep-18 13:25 41.665515 -76.151347 292 20359ft 375kts
15-Sep-18 13:26 41.652395 -76.284545 246 20362ft 383kts
15-Sep-18 13:27 41.604357 -76.411258 243 20348ft 384kts
15-Sep-18 13:28 41.552940 -76.535446 242 20332ft 383kts
15-Sep-18 13:29 41.500628 -76.658700 241 20228ft 383kts
15-Sep-18 13:30 41.449302 -76.778508 241 20229ft 383kts
15-Sep-18 13:31 41.397286 -76.899253 241 20229ft 383kts
15-Sep-18 13:32 41.344326 -77.021635 240 20229ft 383kts
15-Sep-18 13:33 41.291178 -77.143940 240 20229ft 383kts
15-Sep-18 13:34 41.237859 -77.266121 240 20228ft 383kts
15-Sep-18 13:35 41.184768 -77.387287 240 20242ft 383kts
15-Sep-18 13:36 41.131676 -77.507966 240 20261ft 383kts
15-Sep-18 13:37 41.078733 -77.627848 241 20262ft 385kts
15-Sep-18 13:38 41.025091 -77.748806 240 20264ft 388kts
15-Sep-18 13:39 40.971422 -77.869334 240 20267ft 392kts
15-Sep-18 13:40 40.895232 -77.957448 182 20271ft 394kts
15-Sep-18 13:41 40.786946 -77.947143 169 20262ft 393kts
15-Sep-18 13:42 40.680029 -77.921170 166 20261ft 392kts
15-Sep-18 13:43 40.573730 -77.891315 166 20256ft 393kts
15-Sep-18 13:44 40.467270 -77.860523 165 20267ft 410kts
15-Sep-18 13:45 40.360199 -77.829382 165 20248ft 405kts
15-Sep-18 13:46 40.250519 -77.797495 165 20243ft 405kts
15-Sep-18 13:47 40.141081 -77.765775 165 20233ft 405kts
15-Sep-18 13:48 40.031959 -77.734254 165 19552ft 419kts
15-Sep-18 13:49 39.919398 -77.701876 165 15274ft 384kts
15-Sep-18 13:50 39.844971 -77.680481 165 13144ft 353kts
15-Sep-18 13:51 39.751689 -77.653771 166 10344ft 339kts
15-Sep-18 13:52 39.670803 -77.634699 168 7846ft 328kts
15-Sep-18 13:53 39.604933 -77.619462 168 6901ft 276kts
15-Sep-18 13:54 39.536528 -77.603679 168 7237ft 271kts
15-Sep-18 13:55 39.478311 -77.565169 142 7242ft 269kts
15-Sep-18 13:56 39.430762 -77.520212 141 7245ft 269kts
15-Sep-18 13:57 39.388273 -77.479260 141 7246ft 269kts
15-Sep-18 13:58 39.338665 -77.431034 141 7244ft 269kts
15-Sep-18 13:59 39.295860 -77.389278 141 7238ft 269kts
15-Sep-18 14:00 39.241437 -77.363584 175 5987ft 268kts
15-Sep-18 14:01 39.172435 -77.359560 177 4291ft 260kts
15-Sep-18 14:02 39.099261 -77.358251 178 4225ft 261kts
15-Sep-18 14:03 39.028096 -77.357656 178 4225ft 261kts
15-Sep-18 14:04 38.956351 -77.357328 178 4215ft 262kts
15-Sep-18 14:05 38.893855 -77.357548 178 4203ft 259kts
15-Sep-18 14:06 38.824660 -77.358940 178 3474ft 231kts
15-Sep-18 14:07 38.765103 -77.360143 177 3190ft 206kts
15-Sep-18 14:08 38.708081 -77.361305 177 2989ft 205kts
15-Sep-18 14:09 38.665731 -77.391541 282 2990ft 210kts
15-Sep-18 14:10 38.698666 -77.440837 3 3006ft 199kts
15-Sep-18 14:11 38.751651 -77.439593 3 2990ft 187kts
15-Sep-18 14:12 38.803096 -77.438622 3 2660ft 170kts
15-Sep-18 14:13 38.843819 -77.437908 3 1893ft 140kts
15-Sep-18 14:14 38.881849 -77.437227 3 1149ft 124kts
15-Sep-18 14:15 38.914311 -77.436561 2 525ft 119kts
15-Sep-18 14:16 38.938786 -77.436476 344 308ft 38kts
15-Sep-18 14:17 38.945452 -77.438601 0 301ft 22kts
15-Sep-18 14:18 38.952233 -77.438471 1 294ft 23kts

Navigation Log

Ident Type
Flight plan parsing failed, navigation log unavailable